ORMM

Basrah International Airport

Basrah, Iraq
TAF ORMM 160400Z 1606/1706 29005KT 7000 NSC BECMG 1617/1619 VRB03KT 9999 FEW040 BECMG 1703/1705 11504KT 5000 BR SCT040 SCT100
Issued Valid From Valid To
Dec-16 @ 04:00 UTC
(2 hours ago)
Dec-16 @ 06:00 UTC
(in 5 minutes)
Dec-17 @ 06:00 UTC
(in 24 hours)
Dec-16 @ 06:00 to Dec-16 @ 17:00
TAF ORMM 160400Z 1606/1706 29005KT 7000 NSC
Wind Visibility Clouds
290° at 5 knots 7,001 meters
  • No significant clouds
Becoming Dec-16 @ 17:00 to Dec-17 @ 03:00
BECMG 1617/1619 VRB03KT 9999 FEW040
Wind Visibility Clouds
Variable at 3 knots 10,000+ meters
  • Few at 4,000' AGL
Becoming Dec-17 @ 03:00 to Dec-17 @ 06:00
BECMG 1703/1705 11504KT 5000 BR SCT040 SCT100
Wind Visibility Clouds Conditions
115° at 4 knots 5,005 meters
  • Scattered at 4,000' AGL
  • Scattered at 10,000' AGL
  • Mist
TAF ORMM 160400Z 1606/1706 29005KT 7000 NSC BECMG 1617/1619 VRB03KT 9999 FEW040 BECMG 1703/1705 11504KT 5000 BR SCT040 SCT100
Issued Dec-16 @ 04:00 UTC
(2 hours ago)
Valid From Dec-16 @ 06:00 UTC
(in 5 minutes)
Valid To Dec-17 @ 06:00 UTC
(in 24 hours)
Dec-16 @ 06:00 - Dec-16 @ 17:00
Wind Visibility
290° at 5 knots 7,001 meters
Clouds
  • No significant clouds
Becoming Dec-16 @ 17:00 - Dec-17 @ 03:00
Wind Visibility
Variable at 3 knots 10,000+ meters
Clouds
  • Few at 4,000' AGL
Becoming Dec-17 @ 03:00 - Dec-17 @ 06:00
Wind Visibility
115° at 4 knots 5,005 meters
Clouds
  • Scattered at 4,000' AGL
  • Scattered at 10,000' AGL
Conditions
  • Mist